Downpatrick, United Kingdom
Current Conditions -  °F | °C
As of 8:20 PM on Saturday 22 Nov 2014 (Local Time) from EGAC Reporting Station
Few Clouds Few Clouds  
Wind Chill: 42°   Ceiling: Unl
Heat Index: 45°   Visibility: 6mi
Dew Point: 41°   Wind: 5mph
Humidity: 87%   Direction: 230°SW
Pressure: 29.94"   Gusts: NA
Location:  54.33°N, 5.7°W
Report Text: EGAC 222020Z 23004KT 200V270 9999 FEW012 07/05 Q1014
Loading
Personal Weather Stations






























Interactive Weather Map New forecast layout! Learn more

10-Day Weather Forecast

Advertisements
Track Severe Weather on mobile